KPSK/PSK METAR and TAF weather

Enter ICAO airport designator
Station Type Date Time Source
KPSK METAR 2021/06/22 22:35 UTC NOAA

KPSK 222235Z AUTO 30012KT 10SM SCT050 21/11 A2998 RMK AO2 T02120105


Station Type Date Time Source
KPSK Decoded METAR 2021/06/22 22:35 UTC NOAA

Dublin / New River Valley, VA, United States (KPSK) 37-08N 080-41W
Jun 22, 2021 - 06:35 PM EDT / 2021.06.22 2235 UTC
Wind: from the WNW (300 degrees) at 14 MPH (12 KT):0
Visibility: 10 mile(s):0
Sky conditions: partly cloudy
Temperature: 70.2 F (21.2 C)
Dew Point: 50.9 F (10.5 C)
Relative Humidity: 50%
Pressure (altimeter): 29.98 in. Hg (1015 hPa)
ob: KPSK 222235Z AUTO 30012KT 10SM SCT050 21/11 A2998 RMK AO2 T02120105
cycle: 22

Station Type Date Time Source
KPSK TAF UTC NOAA

Error!

Example: see airport list